Worden, Montana
Current Conditions -  °F | °C
As of 8:53 PM on Saturday 20 Dec 2014 (Local Time) from KBIL Reporting Station
Broken Clouds Broken Clouds  
Wind Chill: 24°   Ceiling: 8000
Heat Index: 34°   Visibility: 10mi
Dew Point: 22°   Wind: 15mph
Humidity: 61%   Direction: 240°WSW
Pressure: 29.73"   Gusts: NA
Location:  45.96°N, 108.16°W
Report Text: KBIL 210353Z 24013KT 10SM BKN080 01/M06 A2973 RMK AO2 SLP092 T00111056
Loading
Personal Weather Stations






























Interactive Weather Map New forecast layout! Learn more

10-Day Weather Forecast

Advertisements
Track Severe Weather on mobile